aviador You're here:

CYNA Decoded Metar

NATASHQUAN in QC, CANADA
Report Time2017-12-18 03:00:00
UTC Time2017-12-18 03:27:36
Flight Rules vfr VFR
Wind300° at 08 kt
W.Decomp.*RWY 32: 8.0 kt HW 0 kt LCW
W.Rank300° ranks 5
Current wind is above 300° avg. (7.9)
Visibility9999 m
Phenomena:N/A
Clouds:N/A
Expected CloudBase > 2,000 ft AGL from Temp-Dew spread
CeilingNone
Temp-15°C (ISA -30)
Dew Point-20°C (66% RH)
AAT-21.5°C
QNH1012 hPa
Density Alt-3,701 ft
Elevation36 ft
Report Wrong Elevation
Raw Report
CYNA 180300Z AUTO 30008KT 9SM CLR M15/M20 A2988 RMK SLP119=

Extra information for CYNA:More info

Metar Taf Metar & Taf Last 4 Metars F.Rules Stats Wind Profile Meteogram Temp Stats Airport Information Weather charts Add Link Nearby VenuesMetar ALERT Operation Metar Decoded Social comments